Morgantown Municipal Walter L. Bill Hart Field
KMGW : now visible

Airfield :











YOU CAN JOIN US ON...

 
LOGIN :

Register | Disclaimer

   EN    FR    IT 

 









Legend :    VFR   Marginal VFR   IFR   Intensive IFR   Very Intensive IFR
Visi :
Ceiling :
>= 8 km
>= 3000ft
5 to 8 km
1000 to 3000 ft
1500m to 5 km
500 to 1000 ft
800 to 1500m
200 to 500 ft
< 800m
< 200 ft
Symbols :   Thunderstorms  Fog  Heavy snow  Heavy precipitations  Wind > 20 kt






- Airport Elevation : 1248 ft
- IATA code : MGW


KMGW - Morgantown Municipal Walter L. Bill Hart Field

CURRENT METAR :
  • 260610Z AUTO 21006KT 7SM BKN009 OVC016 01/00 A2990 RMK AO2 UPE05 CIG 007V013 P0000 T00110000

EXPIRED METARs :
  • 260553Z AUTO 23006KT 5SM UP BR OVC010 01/M01 A2991 RMK AO2 UPB45 CIG 007V013 SLP135 P0000 60000 T00111006 10033 20011 57000
  • 260453Z AUTO 22005KT 10SM BKN014 OVC020 02/M01 A2991 RMK AO2 SLP135 T00171006 400890017
  • 260353Z 22008KT 10SM BKN019 OVC025 02/M01 A2991 RMK AO2 SLP135 T00221011

TAF KMGW
Valid from the 26 at 06:00 until the 27 at 06:00 UTC


260539Z 2606/2706 23012G20KT P6SM OVC015
TEMPO 2606/2609 4SM -SN OVC015
FM261500 24008G19KT P6SM OVC015



MET'MAP, your aeronautical weather chart ! - Copyright ORBIFLY December 2007 - Disclaimer

ORBIFLY MET'MAP TEAM :

Programming & Development : Alexandra Zaïnal
Concept & original design : Baudouin d'Aumeries
Assistance for programming : Marc-Olivier Méhu
Technical & hardware support : Manuel Goepfert

Contact : metmap@orbifly.com




SOURCES & CREDITS :

   NOAA       Earth
Advisory